sensor_id;sensor_type;location;lat;lon;timestamp;temperature;humidity
71084;DHT22;58741;52.672;13.548;2023-09-19T00:00:38;18.50;99.90
71084;DHT22;58741;52.672;13.548;2023-09-19T00:03:06;18.50;99.90
71084;DHT22;58741;52.672;13.548;2023-09-19T00:05:35;18.40;99.90
71084;DHT22;58741;52.672;13.548;2023-09-19T00:08:02;18.40;99.90
71084;DHT22;58741;52.672;13.548;2023-09-19T00:10:31;18.40;99.90
71084;DHT22;58741;52.672;13.548;2023-09-19T00:13:02;18.30;99.90
71084;DHT22;58741;52.672;13.548;2023-09-19T00:15:39;18.40;99.90
71084;DHT22;58741;52.672;13.548;2023-09-19T00:18:07;18.30;99.90
71084;DHT22;58741;52.672;13.548;2023-09-19T00:20:36;18.30;99.90
71084;DHT22;58741;52.672;13.548;2023-09-19T00:23:03;18.30;99.90
71084;DHT22;58741;52.672;13.548;2023-09-19T00:25:31;18.20;99.90
71084;DHT22;58741;52.672;13.548;2023-09-19T00:27:58;18.30;99.90
71084;DHT22;58741;52.672;13.548;2023-09-19T00:30:26;18.20;99.90
71084;DHT22;58741;52.672;13.548;2023-09-19T00:32:53;18.20;99.90
71084;DHT22;58741;52.672;13.548;2023-09-19T00:35:21;18.20;99.90
71084;DHT22;58741;52.672;13.548;2023-09-19T00:37:51;18.20;99.90
71084;DHT22;58741;52.672;13.548;2023-09-19T00:40:19;18.20;99.90
71084;DHT22;58741;52.672;13.548;2023-09-19T00:42:47;18.20;99.90
71084;DHT22;58741;52.672;13.548;2023-09-19T00:45:16;18.10;99.90
71084;DHT22;58741;52.672;13.548;2023-09-19T00:47:45;18.10;99.90
71084;DHT22;58741;52.672;13.548;2023-09-19T00:50:15;18.10;99.90
71084;DHT22;58741;52.672;13.548;2023-09-19T00:52:44;18.10;99.90
71084;DHT22;58741;52.672;13.548;2023-09-19T00:55:14;18.00;99.90
71084;DHT22;58741;52.672;13.548;2023-09-19T00:57:42;18.00;99.90
71084;DHT22;58741;52.672;13.548;2023-09-19T01:00:11;18.10;99.90
71084;DHT22;58741;52.672;13.548;2023-09-19T01:02:42;18.00;99.90
71084;DHT22;58741;52.672;13.548;2023-09-19T01:05:12;18.00;99.90
71084;DHT22;58741;52.672;13.548;2023-09-19T01:07:39;18.00;99.90
71084;DHT22;58741;52.672;13.548;2023-09-19T01:10:13;17.90;99.90
71084;DHT22;58741;52.672;13.548;2023-09-19T01:13:22;17.90;99.90
71084;DHT22;58741;52.672;13.548;2023-09-19T01:16:06;17.90;99.90
71084;DHT22;58741;52.672;13.548;2023-09-19T01:18:52;17.90;99.90
71084;DHT22;58741;52.672;13.548;2023-09-19T01:21:26;17.90;99.90
71084;DHT22;58741;52.672;13.548;2023-09-19T01:24:26;17.90;99.90
71084;DHT22;58741;52.672;13.548;2023-09-19T01:30:09;17.80;99.90
71084;DHT22;58741;52.672;13.548;2023-09-19T01:32:36;17.80;99.90
71084;DHT22;58741;52.672;13.548;2023-09-19T01:35:05;17.80;99.90
71084;DHT22;58741;52.672;13.548;2023-09-19T01:37:31;17.80;99.90
71084;DHT22;58741;52.672;13.548;2023-09-19T01:40:02;17.70;99.90
71084;DHT22;58741;52.672;13.548;2023-09-19T01:48:26;17.70;99.90
71084;DHT22;58741;52.672;13.548;2023-09-19T01:51:01;17.70;99.90
71084;DHT22;58741;52.672;13.548;2023-09-19T01:53:50;17.70;99.90
71084;DHT22;58741;52.672;13.548;2023-09-19T01:56:29;17.70;99.90
71084;DHT22;58741;52.672;13.548;2023-09-19T01:59:05;17.70;99.90
71084;DHT22;58741;52.672;13.548;2023-09-19T02:01:34;17.60;99.90
71084;DHT22;58741;52.672;13.548;2023-09-19T02:04:02;17.60;99.90
71084;DHT22;58741;52.672;13.548;2023-09-19T02:06:32;17.70;99.90
71084;DHT22;58741;52.672;13.548;2023-09-19T02:09:00;17.60;99.90
71084;DHT22;58741;52.672;13.548;2023-09-19T02:11:27;17.60;99.90
71084;DHT22;58741;52.672;13.548;2023-09-19T02:13:54;17.60;99.90
71084;DHT22;58741;52.672;13.548;2023-09-19T02:16:22;17.60;99.90
71084;DHT22;58741;52.672;13.548;2023-09-19T02:18:49;17.60;99.90
71084;DHT22;58741;52.672;13.548;2023-09-19T02:21:19;17.60;99.90
71084;DHT22;58741;52.672;13.548;2023-09-19T02:23:48;17.50;99.90
71084;DHT22;58741;52.672;13.548;2023-09-19T02:26:15;17.50;99.90
71084;DHT22;58741;52.672;13.548;2023-09-19T02:28:42;17.50;99.90
71084;DHT22;58741;52.672;13.548;2023-09-19T02:31:09;17.40;99.90
71084;DHT22;58741;52.672;13.548;2023-09-19T02:33:37;17.50;99.90
71084;DHT22;58741;52.672;13.548;2023-09-19T02:36:05;17.40;99.90
71084;DHT22;58741;52.672;13.548;2023-09-19T02:38:32;17.40;99.90
71084;DHT22;58741;52.672;13.548;2023-09-19T02:40:59;17.40;99.90
71084;DHT22;58741;52.672;13.548;2023-09-19T02:43:26;17.40;99.90
71084;DHT22;58741;52.672;13.548;2023-09-19T02:45:53;17.30;99.90
71084;DHT22;58741;52.672;13.548;2023-09-19T02:48:21;17.30;99.90
71084;DHT22;58741;52.672;13.548;2023-09-19T02:50:51;17.30;99.90
71084;DHT22;58741;52.672;13.548;2023-09-19T02:53:18;17.30;99.90
71084;DHT22;58741;52.672;13.548;2023-09-19T02:55:46;17.30;99.90
71084;DHT22;58741;52.672;13.548;2023-09-19T02:58:13;17.30;99.90
71084;DHT22;58741;52.672;13.548;2023-09-19T03:00:41;17.30;99.90
71084;DHT22;58741;52.672;13.548;2023-09-19T03:03:09;17.20;99.90
71084;DHT22;58741;52.672;13.548;2023-09-19T03:05:36;17.20;99.90
71084;DHT22;58741;52.672;13.548;2023-09-19T03:08:05;17.20;99.90
71084;DHT22;58741;52.672;13.548;2023-09-19T03:10:32;17.20;99.90
71084;DHT22;58741;52.672;13.548;2023-09-19T03:13:00;17.20;99.90
71084;DHT22;58741;52.672;13.548;2023-09-19T03:15:27;17.10;99.90
71084;DHT22;58741;52.672;13.548;2023-09-19T03:17:54;17.10;99.90
71084;DHT22;58741;52.672;13.548;2023-09-19T03:20:23;17.10;99.90
71084;DHT22;58741;52.672;13.548;2023-09-19T03:22:50;17.10;99.90
71084;DHT22;58741;52.672;13.548;2023-09-19T03:25:17;17.00;99.90
71084;DHT22;58741;52.672;13.548;2023-09-19T03:27:48;17.00;99.90
71084;DHT22;58741;52.672;13.548;2023-09-19T03:30:15;17.00;99.90
71084;DHT22;58741;52.672;13.548;2023-09-19T03:32:47;17.00;99.90
71084;DHT22;58741;52.672;13.548;2023-09-19T03:35:17;17.00;99.90
71084;DHT22;58741;52.672;13.548;2023-09-19T03:37:45;17.00;99.90
71084;DHT22;58741;52.672;13.548;2023-09-19T03:40:13;17.00;99.90
71084;DHT22;58741;52.672;13.548;2023-09-19T03:42:41;17.00;99.90
71084;DHT22;58741;52.672;13.548;2023-09-19T03:45:11;16.90;99.90
71084;DHT22;58741;52.672;13.548;2023-09-19T03:47:44;16.90;99.90
71084;DHT22;58741;52.672;13.548;2023-09-19T03:50:12;16.90;99.90
71084;DHT22;58741;52.672;13.548;2023-09-19T03:52:38;16.90;99.90
71084;DHT22;58741;52.672;13.548;2023-09-19T03:55:06;16.90;99.90
71084;DHT22;58741;52.672;13.548;2023-09-19T03:57:33;16.90;99.90
71084;DHT22;58741;52.672;13.548;2023-09-19T04:00:03;16.90;99.90
71084;DHT22;58741;52.672;13.548;2023-09-19T04:02:39;16.90;99.90
71084;DHT22;58741;52.672;13.548;2023-09-19T04:05:07;16.80;99.90
71084;DHT22;58741;52.672;13.548;2023-09-19T04:07:34;16.80;99.90
71084;DHT22;58741;52.672;13.548;2023-09-19T04:10:01;16.80;99.90
71084;DHT22;58741;52.672;13.548;2023-09-19T04:12:29;16.80;99.90
71084;DHT22;58741;52.672;13.548;2023-09-19T04:14:56;16.80;99.90
71084;DHT22;58741;52.672;13.548;2023-09-19T04:17:22;16.80;99.90
71084;DHT22;58741;52.672;13.548;2023-09-19T04:19:50;16.80;99.90
71084;DHT22;58741;52.672;13.548;2023-09-19T04:22:17;16.70;99.90
71084;DHT22;58741;52.672;13.548;2023-09-19T04:24:44;16.70;99.90
71084;DHT22;58741;52.672;13.548;2023-09-19T04:27:11;16.70;99.90
71084;DHT22;58741;52.672;13.548;2023-09-19T04:29:41;16.70;99.90
71084;DHT22;58741;52.672;13.548;2023-09-19T04:32:10;16.70;99.90
71084;DHT22;58741;52.672;13.548;2023-09-19T04:34:39;16.70;99.90
71084;DHT22;58741;52.672;13.548;2023-09-19T04:37:06;16.60;99.90
71084;DHT22;58741;52.672;13.548;2023-09-19T04:39:33;16.60;99.90
71084;DHT22;58741;52.672;13.548;2023-09-19T04:42:00;16.60;99.90
71084;DHT22;58741;52.672;13.548;2023-09-19T04:44:27;16.60;99.90
71084;DHT22;58741;52.672;13.548;2023-09-19T04:46:54;16.50;99.90
71084;DHT22;58741;52.672;13.548;2023-09-19T04:49:21;16.50;99.90
71084;DHT22;58741;52.672;13.548;2023-09-19T04:51:48;16.50;99.90
71084;DHT22;58741;52.672;13.548;2023-09-19T04:54:15;16.40;99.90
71084;DHT22;58741;52.672;13.548;2023-09-19T04:56:42;16.40;99.90
71084;DHT22;58741;52.672;13.548;2023-09-19T04:59:09;16.40;99.90
71084;DHT22;58741;52.672;13.548;2023-09-19T05:01:37;16.40;99.90
71084;DHT22;58741;52.672;13.548;2023-09-19T05:04:04;16.30;99.90
71084;DHT22;58741;52.672;13.548;2023-09-19T05:06:32;16.30;99.90
71084;DHT22;58741;52.672;13.548;2023-09-19T05:09:02;16.30;99.90
71084;DHT22;58741;52.672;13.548;2023-09-19T05:11:31;16.30;99.90
71084;DHT22;58741;52.672;13.548;2023-09-19T05:13:58;16.30;99.90
71084;DHT22;58741;52.672;13.548;2023-09-19T05:16:29;16.30;99.90
71084;DHT22;58741;52.672;13.548;2023-09-19T05:18:57;16.20;99.90
71084;DHT22;58741;52.672;13.548;2023-09-19T05:21:26;16.20;99.90
71084;DHT22;58741;52.672;13.548;2023-09-19T05:23:57;16.20;99.90
71084;DHT22;58741;52.672;13.548;2023-09-19T05:26:24;16.10;99.90
71084;DHT22;58741;52.672;13.548;2023-09-19T05:28:51;16.10;99.90
71084;DHT22;58741;52.672;13.548;2023-09-19T05:31:19;16.10;99.90
71084;DHT22;58741;52.672;13.548;2023-09-19T05:33:47;16.10;99.90
71084;DHT22;58741;52.672;13.548;2023-09-19T05:36:13;16.10;99.90
71084;DHT22;58741;52.672;13.548;2023-09-19T05:38:42;16.10;99.90
71084;DHT22;58741;52.672;13.548;2023-09-19T05:41:10;16.10;99.90
71084;DHT22;58741;52.672;13.548;2023-09-19T05:43:40;16.10;99.90
71084;DHT22;58741;52.672;13.548;2023-09-19T05:46:08;16.10;99.90
71084;DHT22;58741;52.672;13.548;2023-09-19T05:48:35;16.10;99.90
71084;DHT22;58741;52.672;13.548;2023-09-19T05:51:02;16.10;99.90
71084;DHT22;58741;52.672;13.548;2023-09-19T05:53:29;16.10;99.90
71084;DHT22;58741;52.672;13.548;2023-09-19T05:55:56;16.10;99.90
71084;DHT22;58741;52.672;13.548;2023-09-19T05:58:23;16.10;99.90
71084;DHT22;58741;52.672;13.548;2023-09-19T06:00:50;16.00;99.90
71084;DHT22;58741;52.672;13.548;2023-09-19T06:03:16;16.10;99.90
71084;DHT22;58741;52.672;13.548;2023-09-19T06:05:45;16.10;99.90
71084;DHT22;58741;52.672;13.548;2023-09-19T06:08:13;16.10;99.90
71084;DHT22;58741;52.672;13.548;2023-09-19T06:10:40;16.10;99.90
71084;DHT22;58741;52.672;13.548;2023-09-19T06:13:07;16.00;99.90
71084;DHT22;58741;52.672;13.548;2023-09-19T06:15:36;16.10;99.90
71084;DHT22;58741;52.672;13.548;2023-09-19T06:18:03;16.10;99.90
71084;DHT22;58741;52.672;13.548;2023-09-19T06:20:31;16.10;99.90
71084;DHT22;58741;52.672;13.548;2023-09-19T06:22:59;16.20;99.90
71084;DHT22;58741;52.672;13.548;2023-09-19T06:25:29;16.20;99.90
71084;DHT22;58741;52.672;13.548;2023-09-19T06:27:55;16.20;99.90
71084;DHT22;58741;52.672;13.548;2023-09-19T06:30:24;16.30;99.90
71084;DHT22;58741;52.672;13.548;2023-09-19T06:32:58;16.30;99.90
71084;DHT22;58741;52.672;13.548;2023-09-19T06:35:28;16.30;99.90
71084;DHT22;58741;52.672;13.548;2023-09-19T06:37:56;16.40;99.90
71084;DHT22;58741;52.672;13.548;2023-09-19T06:40:25;16.30;99.90
71084;DHT22;58741;52.672;13.548;2023-09-19T06:42:52;16.40;99.90
71084;DHT22;58741;52.672;13.548;2023-09-19T06:45:20;16.40;99.90
71084;DHT22;58741;52.672;13.548;2023-09-19T06:47:50;16.50;99.90
71084;DHT22;58741;52.672;13.548;2023-09-19T06:50:18;16.60;99.90
71084;DHT22;58741;52.672;13.548;2023-09-19T06:52:46;16.70;99.90
71084;DHT22;58741;52.672;13.548;2023-09-19T06:55:18;16.90;99.90
71084;DHT22;58741;52.672;13.548;2023-09-19T06:57:47;17.00;99.90
71084;DHT22;58741;52.672;13.548;2023-09-19T07:00:15;17.10;99.90
71084;DHT22;58741;52.672;13.548;2023-09-19T07:02:42;17.30;99.90
71084;DHT22;58741;52.672;13.548;2023-09-19T07:05:09;17.40;99.90
71084;DHT22;58741;52.672;13.548;2023-09-19T07:07:36;17.50;99.90
71084;DHT22;58741;52.672;13.548;2023-09-19T07:10:04;17.60;99.90
71084;DHT22;58741;52.672;13.548;2023-09-19T07:12:36;17.70;99.90
71084;DHT22;58741;52.672;13.548;2023-09-19T07:15:03;17.80;99.90
71084;DHT22;58741;52.672;13.548;2023-09-19T07:17:32;18.00;99.90
71084;DHT22;58741;52.672;13.548;2023-09-19T07:20:00;18.10;99.90
71084;DHT22;58741;52.672;13.548;2023-09-19T07:22:27;18.20;99.90
71084;DHT22;58741;52.672;13.548;2023-09-19T07:24:56;18.20;99.90
71084;DHT22;58741;52.672;13.548;2023-09-19T07:27:23;18.30;99.90
71084;DHT22;58741;52.672;13.548;2023-09-19T07:29:50;18.30;99.90
71084;DHT22;58741;52.672;13.548;2023-09-19T07:32:20;18.30;99.90
71084;DHT22;58741;52.672;13.548;2023-09-19T07:34:47;18.30;99.90
71084;DHT22;58741;52.672;13.548;2023-09-19T07:37:14;18.30;99.90
71084;DHT22;58741;52.672;13.548;2023-09-19T07:39:42;18.20;99.90
71084;DHT22;58741;52.672;13.548;2023-09-19T07:42:10;18.20;99.90
71084;DHT22;58741;52.672;13.548;2023-09-19T07:44:38;18.20;99.90
71084;DHT22;58741;52.672;13.548;2023-09-19T07:47:05;18.30;99.90
71084;DHT22;58741;52.672;13.548;2023-09-19T07:49:31;18.30;99.90
71084;DHT22;58741;52.672;13.548;2023-09-19T07:51:58;18.30;99.90
71084;DHT22;58741;52.672;13.548;2023-09-19T07:54:26;18.40;99.90
71084;DHT22;58741;52.672;13.548;2023-09-19T07:56:53;18.40;99.90
71084;DHT22;58741;52.672;13.548;2023-09-19T07:59:20;18.40;99.80
71084;DHT22;58741;52.672;13.548;2023-09-19T08:01:47;18.40;99.10
71084;DHT22;58741;52.672;13.548;2023-09-19T08:04:14;18.40;99.90
71084;DHT22;58741;52.672;13.548;2023-09-19T08:06:41;18.40;99.10
71084;DHT22;58741;52.672;13.548;2023-09-19T08:09:10;18.50;99.40
71084;DHT22;58741;52.672;13.548;2023-09-19T08:11:38;18.50;99.20
71084;DHT22;58741;52.672;13.548;2023-09-19T08:14:05;18.60;98.10
71084;DHT22;58741;52.672;13.548;2023-09-19T08:16:35;18.60;99.40
71084;DHT22;58741;52.672;13.548;2023-09-19T08:19:02;18.70;99.00
71084;DHT22;58741;52.672;13.548;2023-09-19T08:21:29;18.80;97.90
71084;DHT22;58741;52.672;13.548;2023-09-19T08:23:56;18.80;98.80
71084;DHT22;58741;52.672;13.548;2023-09-19T08:26:23;18.80;99.00
71084;DHT22;58741;52.672;13.548;2023-09-19T08:28:51;18.80;97.20
71084;DHT22;58741;52.672;13.548;2023-09-19T08:31:18;18.80;96.00
71084;DHT22;58741;52.672;13.548;2023-09-19T08:33:45;18.70;97.20
71084;DHT22;58741;52.672;13.548;2023-09-19T08:36:15;18.70;97.10
71084;DHT22;58741;52.672;13.548;2023-09-19T08:38:42;18.80;97.60
71084;DHT22;58741;52.672;13.548;2023-09-19T08:41:09;18.80;97.40
71084;DHT22;58741;52.672;13.548;2023-09-19T08:43:36;18.90;96.90
71084;DHT22;58741;52.672;13.548;2023-09-19T08:46:15;18.90;97.10
71084;DHT22;58741;52.672;13.548;2023-09-19T08:48:57;18.90;96.10
71084;DHT22;58741;52.672;13.548;2023-09-19T08:51:33;19.00;96.60
71084;DHT22;58741;52.672;13.548;2023-09-19T08:54:07;19.00;95.70
71084;DHT22;58741;52.672;13.548;2023-09-19T08:56:34;19.10;95.70
71084;DHT22;58741;52.672;13.548;2023-09-19T08:59:06;19.10;96.60
71084;DHT22;58741;52.672;13.548;2023-09-19T09:01:36;19.30;96.70
71084;DHT22;58741;52.672;13.548;2023-09-19T09:04:08;19.30;96.50
71084;DHT22;58741;52.672;13.548;2023-09-19T09:06:35;19.50;96.50
71084;DHT22;58741;52.672;13.548;2023-09-19T09:09:03;19.50;94.10
71084;DHT22;58741;52.672;13.548;2023-09-19T09:11:33;19.50;95.00
71084;DHT22;58741;52.672;13.548;2023-09-19T09:13:59;19.60;94.70
71084;DHT22;58741;52.672;13.548;2023-09-19T09:16:26;19.60;93.50
71084;DHT22;58741;52.672;13.548;2023-09-19T09:18:53;19.60;94.70
71084;DHT22;58741;52.672;13.548;2023-09-19T09:21:22;19.60;95.70
71084;DHT22;58741;52.672;13.548;2023-09-19T09:23:51;19.70;95.40
71084;DHT22;58741;52.672;13.548;2023-09-19T09:26:43;19.80;94.30
71084;DHT22;58741;52.672;13.548;2023-09-19T09:29:10;19.90;96.10
71084;DHT22;58741;52.672;13.548;2023-09-19T09:31:37;20.10;94.80
71084;DHT22;58741;52.672;13.548;2023-09-19T09:34:04;20.20;93.10
71084;DHT22;58741;52.672;13.548;2023-09-19T09:36:35;20.20;93.00
71084;DHT22;58741;52.672;13.548;2023-09-19T09:39:03;20.20;91.90
71084;DHT22;58741;52.672;13.548;2023-09-19T09:41:43;20.20;91.00
71084;DHT22;58741;52.672;13.548;2023-09-19T09:44:15;20.10;91.90
71084;DHT22;58741;52.672;13.548;2023-09-19T09:46:43;20.00;90.30
71084;DHT22;58741;52.672;13.548;2023-09-19T09:49:23;19.90;90.50
71084;DHT22;58741;52.672;13.548;2023-09-19T09:52:05;19.90;92.10
71084;DHT22;58741;52.672;13.548;2023-09-19T09:55:04;19.90;90.70
71084;DHT22;58741;52.672;13.548;2023-09-19T09:57:35;19.90;91.90
71084;DHT22;58741;52.672;13.548;2023-09-19T10:00:03;19.90;89.10
71084;DHT22;58741;52.672;13.548;2023-09-19T10:02:38;19.90;89.00
71084;DHT22;58741;52.672;13.548;2023-09-19T10:05:19;19.90;85.70
71084;DHT22;58741;52.672;13.548;2023-09-19T10:07:47;19.80;88.40
71084;DHT22;58741;52.672;13.548;2023-09-19T10:10:33;19.80;90.30
71084;DHT22;58741;52.672;13.548;2023-09-19T10:13:12;19.90;89.90
71084;DHT22;58741;52.672;13.548;2023-09-19T10:15:43;20.00;90.30
71084;DHT22;58741;52.672;13.548;2023-09-19T10:18:21;20.20;90.70
71084;DHT22;58741;52.672;13.548;2023-09-19T10:20:48;20.40;91.90
71084;DHT22;58741;52.672;13.548;2023-09-19T10:23:17;20.70;91.50
71084;DHT22;58741;52.672;13.548;2023-09-19T10:25:51;20.90;92.30
71084;DHT22;58741;52.672;13.548;2023-09-19T10:28:20;21.00;90.20
71084;DHT22;58741;52.672;13.548;2023-09-19T10:30:53;21.00;84.20
71084;DHT22;58741;52.672;13.548;2023-09-19T10:33:24;20.90;85.70
71084;DHT22;58741;52.672;13.548;2023-09-19T10:35:56;20.90;88.60
71084;DHT22;58741;52.672;13.548;2023-09-19T10:38:27;20.90;86.50
71084;DHT22;58741;52.672;13.548;2023-09-19T10:40:56;20.80;83.40
71084;DHT22;58741;52.672;13.548;2023-09-19T10:43:32;20.80;86.40
71084;DHT22;58741;52.672;13.548;2023-09-19T10:46:06;20.90;87.60
71084;DHT22;58741;52.672;13.548;2023-09-19T10:48:34;21.00;86.00
71084;DHT22;58741;52.672;13.548;2023-09-19T10:51:02;21.20;87.00
71084;DHT22;58741;52.672;13.548;2023-09-19T10:53:45;21.40;85.80
71084;DHT22;58741;52.672;13.548;2023-09-19T10:56:29;21.60;83.70
71084;DHT22;58741;52.672;13.548;2023-09-19T10:59:13;21.60;77.60
71084;DHT22;58741;52.672;13.548;2023-09-19T11:02:15;21.50;77.60
71084;DHT22;58741;52.672;13.548;2023-09-19T11:04:44;21.40;78.90
71084;DHT22;58741;52.672;13.548;2023-09-19T11:07:15;21.50;78.80
71084;DHT22;58741;52.672;13.548;2023-09-19T11:09:46;21.50;72.20
71084;DHT22;58741;52.672;13.548;2023-09-19T11:14:58;21.50;76.00
71084;DHT22;58741;52.672;13.548;2023-09-19T11:17:43;21.60;77.60
71084;DHT22;58741;52.672;13.548;2023-09-19T11:30:40;21.90;71.50
71084;DHT22;58741;52.672;13.548;2023-09-19T11:36:04;22.00;68.90
71084;DHT22;58741;52.672;13.548;2023-09-19T11:43:48;22.10;73.70
71084;DHT22;58741;52.672;13.548;2023-09-19T11:46:21;22.10;71.20
71084;DHT22;58741;52.672;13.548;2023-09-19T11:48:49;22.20;75.10
71084;DHT22;58741;52.672;13.548;2023-09-19T11:51:20;22.30;73.80
71084;DHT22;58741;52.672;13.548;2023-09-19T11:53:57;22.40;75.50
71084;DHT22;58741;52.672;13.548;2023-09-19T11:56:27;22.50;75.90
71084;DHT22;58741;52.672;13.548;2023-09-19T11:58:56;22.50;74.50
71084;DHT22;58741;52.672;13.548;2023-09-19T12:01:32;22.60;70.10
71084;DHT22;58741;52.672;13.548;2023-09-19T12:04:02;22.50;70.70
71084;DHT22;58741;52.672;13.548;2023-09-19T12:06:31;22.40;71.50
71084;DHT22;58741;52.672;13.548;2023-09-19T12:08:59;22.40;71.10
71084;DHT22;58741;52.672;13.548;2023-09-19T12:11:30;22.40;71.00
71084;DHT22;58741;52.672;13.548;2023-09-19T12:14:00;22.50;69.40
71084;DHT22;58741;52.672;13.548;2023-09-19T12:16:28;22.50;70.20
71084;DHT22;58741;52.672;13.548;2023-09-19T12:18:58;22.40;71.40
71084;DHT22;58741;52.672;13.548;2023-09-19T12:21:43;22.40;70.40
71084;DHT22;58741;52.672;13.548;2023-09-19T12:24:13;22.40;70.70
71084;DHT22;58741;52.672;13.548;2023-09-19T12:26:42;22.40;71.50
71084;DHT22;58741;52.672;13.548;2023-09-19T12:29:19;22.40;69.50
71084;DHT22;58741;52.672;13.548;2023-09-19T12:31:58;22.40;71.50
71084;DHT22;58741;52.672;13.548;2023-09-19T12:34:32;22.40;69.90
71084;DHT22;58741;52.672;13.548;2023-09-19T12:39:40;22.40;67.20
71084;DHT22;58741;52.672;13.548;2023-09-19T12:42:09;22.40;68.70
71084;DHT22;58741;52.672;13.548;2023-09-19T12:44:37;22.30;67.10
71084;DHT22;58741;52.672;13.548;2023-09-19T12:47:15;22.30;68.40
71084;DHT22;58741;52.672;13.548;2023-09-19T12:50:05;22.30;67.20
71084;DHT22;58741;52.672;13.548;2023-09-19T12:52:37;22.30;67.80
71084;DHT22;58741;52.672;13.548;2023-09-19T12:55:04;22.20;67.90
71084;DHT22;58741;52.672;13.548;2023-09-19T12:57:35;22.10;64.50
71084;DHT22;58741;52.672;13.548;2023-09-19T13:00:03;22.00;68.10
71084;DHT22;58741;52.672;13.548;2023-09-19T13:02:34;22.00;65.00
71084;DHT22;58741;52.672;13.548;2023-09-19T13:05:01;22.00;68.90
71084;DHT22;58741;52.672;13.548;2023-09-19T13:08:04;22.00;68.00
71084;DHT22;58741;52.672;13.548;2023-09-19T13:11:12;21.90;63.50
71084;DHT22;58741;52.672;13.548;2023-09-19T13:13:50;21.90;66.40
71084;DHT22;58741;52.672;13.548;2023-09-19T13:16:21;21.90;66.70
71084;DHT22;58741;52.672;13.548;2023-09-19T13:18:54;21.80;66.60
71084;DHT22;58741;52.672;13.548;2023-09-19T13:21:32;21.70;66.20
71084;DHT22;58741;52.672;13.548;2023-09-19T13:24:20;21.60;65.40
71084;DHT22;58741;52.672;13.548;2023-09-19T13:26:47;21.40;63.10
71084;DHT22;58741;52.672;13.548;2023-09-19T13:29:14;21.20;63.40
71084;DHT22;58741;52.672;13.548;2023-09-19T13:31:48;21.10;66.70
71084;DHT22;58741;52.672;13.548;2023-09-19T13:34:16;21.10;66.70
71084;DHT22;58741;52.672;13.548;2023-09-19T13:36:44;21.10;67.60
71084;DHT22;58741;52.672;13.548;2023-09-19T13:39:11;21.10;64.10
71084;DHT22;58741;52.672;13.548;2023-09-19T13:41:39;21.00;66.40
71084;DHT22;58741;52.672;13.548;2023-09-19T13:44:06;20.90;66.90
71084;DHT22;58741;52.672;13.548;2023-09-19T13:46:33;20.90;67.70
71084;DHT22;58741;52.672;13.548;2023-09-19T13:49:01;20.90;67.10
71084;DHT22;58741;52.672;13.548;2023-09-19T13:51:33;20.90;66.40
71084;DHT22;58741;52.672;13.548;2023-09-19T13:53:59;20.80;67.90
71084;DHT22;58741;52.672;13.548;2023-09-19T13:56:26;20.80;66.50
71084;DHT22;58741;52.672;13.548;2023-09-19T13:58:54;20.70;66.50
71084;DHT22;58741;52.672;13.548;2023-09-19T14:01:21;20.70;70.10
71084;DHT22;58741;52.672;13.548;2023-09-19T14:03:48;20.70;70.20
71084;DHT22;58741;52.672;13.548;2023-09-19T14:06:17;20.70;70.10
71084;DHT22;58741;52.672;13.548;2023-09-19T14:08:44;20.70;66.90
71084;DHT22;58741;52.672;13.548;2023-09-19T14:11:14;20.60;67.60
71084;DHT22;58741;52.672;13.548;2023-09-19T14:13:43;20.60;67.00
71084;DHT22;58741;52.672;13.548;2023-09-19T14:16:13;20.50;67.40
71084;DHT22;58741;52.672;13.548;2023-09-19T14:18:40;20.50;68.60
71084;DHT22;58741;52.672;13.548;2023-09-19T14:21:08;20.50;68.90
71084;DHT22;58741;52.672;13.548;2023-09-19T14:23:38;20.40;69.10
71084;DHT22;58741;52.672;13.548;2023-09-19T14:26:05;20.40;68.70
71084;DHT22;58741;52.672;13.548;2023-09-19T14:28:33;20.40;70.70
71084;DHT22;58741;52.672;13.548;2023-09-19T14:31:07;20.40;71.00
71084;DHT22;58741;52.672;13.548;2023-09-19T14:33:34;20.40;70.70
71084;DHT22;58741;52.672;13.548;2023-09-19T14:36:05;20.40;68.20
71084;DHT22;58741;52.672;13.548;2023-09-19T14:38:33;20.40;71.10
71084;DHT22;58741;52.672;13.548;2023-09-19T14:41:05;20.40;70.20
71084;DHT22;58741;52.672;13.548;2023-09-19T14:43:32;20.30;69.10
71084;DHT22;58741;52.672;13.548;2023-09-19T14:46:03;20.30;69.70
71084;DHT22;58741;52.672;13.548;2023-09-19T14:48:30;20.30;70.50
71084;DHT22;58741;52.672;13.548;2023-09-19T14:51:05;20.30;70.80
71084;DHT22;58741;52.672;13.548;2023-09-19T14:53:32;20.20;68.70
71084;DHT22;58741;52.672;13.548;2023-09-19T14:56:02;20.20;70.80
71084;DHT22;58741;52.672;13.548;2023-09-19T14:58:31;20.20;69.90
71084;DHT22;58741;52.672;13.548;2023-09-19T15:01:09;20.20;71.80
71084;DHT22;58741;52.672;13.548;2023-09-19T15:03:40;20.20;70.70
71084;DHT22;58741;52.672;13.548;2023-09-19T15:06:12;20.20;70.60
71084;DHT22;58741;52.672;13.548;2023-09-19T15:08:46;20.10;71.10
71084;DHT22;58741;52.672;13.548;2023-09-19T15:11:15;20.10;70.90
71084;DHT22;58741;52.672;13.548;2023-09-19T15:13:47;20.10;71.50
71084;DHT22;58741;52.672;13.548;2023-09-19T15:16:14;20.10;71.60
71084;DHT22;58741;52.672;13.548;2023-09-19T15:18:43;20.10;72.50
71084;DHT22;58741;52.672;13.548;2023-09-19T15:21:12;20.10;71.90
71084;DHT22;58741;52.672;13.548;2023-09-19T15:23:40;20.10;73.00
71084;DHT22;58741;52.672;13.548;2023-09-19T15:26:12;20.10;72.30
71084;DHT22;58741;52.672;13.548;2023-09-19T15:28:39;20.20;74.10
71084;DHT22;58741;52.672;13.548;2023-09-19T15:31:09;20.20;73.00
71084;DHT22;58741;52.672;13.548;2023-09-19T15:33:36;20.20;73.80
71084;DHT22;58741;52.672;13.548;2023-09-19T15:36:08;20.30;72.10
71084;DHT22;58741;52.672;13.548;2023-09-19T15:41:20;20.30;71.70
71084;DHT22;58741;52.672;13.548;2023-09-19T15:43:50;20.40;73.50
71084;DHT22;58741;52.672;13.548;2023-09-19T15:46:17;20.50;74.50
71084;DHT22;58741;52.672;13.548;2023-09-19T15:48:44;20.50;74.50
71084;DHT22;58741;52.672;13.548;2023-09-19T15:51:12;20.60;73.80
71084;DHT22;58741;52.672;13.548;2023-09-19T15:53:51;20.60;74.60
71084;DHT22;58741;52.672;13.548;2023-09-19T15:56:20;20.70;75.90
71084;DHT22;58741;52.672;13.548;2023-09-19T15:58:51;20.80;74.00
71084;DHT22;58741;52.672;13.548;2023-09-19T16:01:18;20.80;73.40
71084;DHT22;58741;52.672;13.548;2023-09-19T16:03:50;20.90;75.00
71084;DHT22;58741;52.672;13.548;2023-09-19T16:06:21;21.00;75.40
71084;DHT22;58741;52.672;13.548;2023-09-19T16:08:51;21.10;75.80